sim
Sign-in with your pilot id or email,
or register
Callsign
Passwort

Schedule Details

Flight Number: OEO5778
Departure: Frankfurt Airport (EDDF) at 04:45
Arrival: Fuerteventura Airport (GCFV) at 09:40

Weather Information
Getting current METAR information for EDDF 211620Z 21005KT CAVOK 11/06 Q1027 NOSIG
Getting current METAR information for GCFV 211600Z 06005KT 030V110 CAVOK 20/14 Q1020

Schedule Frequency

Route Map